^^
Saratoga-Weather Station Historical Data
Daily Summary for October 20, 2021 Units:  Both    English   Metric
Daily Weekly Monthly Yearly Custom
  High: Low: Average:
Temperature: 55.9 °F /  13.3 °C 53.2 °F /  11.8 °C 54.5 °F /  12.5 °C
Dew Point: 52 °F /  11.1 °C 49.5 °F /  9.7 °C 50.9 °F /  10.5 °C
Humidity: 90% 79% 88%
Wind Speed: 6mph /  9.7km/h - 1.5mph /  2.4km/h
Wind Gust: 6mph /  9.7km/h - -
Wind- - ESE
Pressure: 30.1 in /  1017.6 hPa 30 in /  1015.9 hPa -
Precipitation: 0 in /  0.0 mm    
Historical Graphs
 
 
Tabular Data for October 20, 2021
Time Temperature Dew Point Pressure Wind Wind Speed Wind Gust Humidity Rainfall Rate (Hourly) solar
00:04 54.7 °F /  12.6 °C 51.8 °F /  11 °C 30.1in /  1017.6hPa Calm   2mph /  3.2km/h 90% 0in /  0.0mm 0 W/m2
00:09 54.7 °F /  12.6 °C 51.8 °F /  11 °C 30.1in /  1017.6hPa ESE 2.9mph /  4.7km/h 3mph /  4.8km/h 90% 0in /  0.0mm 0 W/m2
00:14 54.7 °F /  12.6 °C 51.8 °F /  11 °C 30.1in /  1017.6hPa ESE 2.9mph /  4.7km/h 4mph /  6.4km/h 90% 0in /  0.0mm 0 W/m2
00:19 54.9 °F /  12.7 °C 52 °F /  11.1 °C 30.1in /  1017.6hPa SE 0.9mph /  1.4km/h 2mph /  3.2km/h 90% 0in /  0.0mm 0 W/m2
00:24 54.9 °F /  12.7 °C 52 °F /  11.1 °C 30.1in /  1017.6hPa ESE 0.9mph /  1.4km/h 4mph /  6.4km/h 90% 0in /  0.0mm 0 W/m2
00:29 54.9 °F /  12.7 °C 51.6 °F /  10.9 °C 30.1in /  1017.6hPa ESE 2mph /  3.2km/h 3mph /  4.8km/h 89% 0in /  0.0mm 0 W/m2
00:34 54.9 °F /  12.7 °C 51.6 °F /  10.9 °C 30in /  1017.3hPa East 2mph /  3.2km/h 4mph /  6.4km/h 89% 0in /  0.0mm 0 W/m2
00:39 55 °F /  12.8 °C 51.8 °F /  11 °C 30in /  1017.3hPa East 6mph /  9.7km/h 6mph /  9.7km/h 89% 0in /  0.0mm 0 W/m2
00:44 55.2 °F /  12.9 °C 51.8 °F /  11 °C 30in /  1016.9hPa ESE 0.9mph /  1.4km/h 3mph /  4.8km/h 88% 0in /  0.0mm 0 W/m2
00:49 55.2 °F /  12.9 °C 51.8 °F /  11 °C 30in /  1016.9hPa ESE 2.9mph /  4.7km/h 3mph /  4.8km/h 88% 0in /  0.0mm 0 W/m2
00:54 55 °F /  12.8 °C 51.6 °F /  10.9 °C 30in /  1016.9hPa East 2mph /  3.2km/h 4mph /  6.4km/h 88% 0in /  0.0mm 0 W/m2
00:59 55 °F /  12.8 °C 51.6 °F /  10.9 °C 30in /  1016.9hPa ESE 2mph /  3.2km/h 2mph /  3.2km/h 88% 0in /  0.0mm 0 W/m2
01:04 55 °F /  12.8 °C 51.6 °F /  10.9 °C 30in /  1016.9hPa ESE 2.9mph /  4.7km/h 4mph /  6.4km/h 88% 0in /  0.0mm 0 W/m2
01:09 55 °F /  12.8 °C 51.6 °F /  10.9 °C 30in /  1016.6hPa East 0.9mph /  1.4km/h 3mph /  4.8km/h 88% 0in /  0.0mm 0 W/m2
01:14 54.9 °F /  12.7 °C 51.4 °F /  10.8 °C 30in /  1016.6hPa ESE 2mph /  3.2km/h 2mph /  3.2km/h 88% 0in /  0.0mm 0 W/m2
01:19 54.9 °F /  12.7 °C 51.4 °F /  10.8 °C 30in /  1016.6hPa Calm   1mph /  1.6km/h 88% 0in /  0.0mm 0 W/m2
01:24 54.7 °F /  12.6 °C 51.3 °F /  10.7 °C 30in /  1016.6hPa ESE 0.9mph /  1.4km/h 3mph /  4.8km/h 88% 0in /  0.0mm 0 W/m2
01:29 54.5 °F /  12.5 °C 51.1 °F /  10.6 °C 30in /  1016.6hPa Calm     88% 0in /  0.0mm 0 W/m2
01:34 54.1 °F /  12.3 °C 50.7 °F /  10.4 °C 30in /  1016.6hPa ESE 0.9mph /  1.4km/h 4mph /  6.4km/h 88% 0in /  0.0mm 0 W/m2
01:39 54.1 °F /  12.3 °C 50.7 °F /  10.4 °C 30in /  1016.6hPa East 0.9mph /  1.4km/h 3mph /  4.8km/h 88% 0in /  0.0mm 0 W/m2
01:44 54.1 °F /  12.3 °C 50.7 °F /  10.4 °C 30in /  1016.6hPa Calm   3mph /  4.8km/h 88% 0in /  0.0mm 0 W/m2
01:49 54 °F /  12.2 °C 50.7 °F /  10.4 °C 30in /  1016.6hPa Calm   2mph /  3.2km/h 89% 0in /  0.0mm 0 W/m2
01:54 53.8 °F /  12.1 °C 50.4 °F /  10.2 °C 30in /  1016.3hPa SSE 0.9mph /  1.4km/h 4mph /  6.4km/h 88% 0in /  0.0mm 0 W/m2
01:59 53.6 °F /  12 °C 50.4 °F /  10.2 °C 30in /  1016.3hPa ESE 2.9mph /  4.7km/h 3mph /  4.8km/h 89% 0in /  0.0mm 0 W/m2
02:04 53.4 °F /  11.9 °C 50.2 °F /  10.1 °C 30in /  1016.3hPa ESE 2mph /  3.2km/h 4mph /  6.4km/h 89% 0in /  0.0mm 0 W/m2
02:09 53.4 °F /  11.9 °C 50.2 °F /  10.1 °C 30in /  1016.3hPa SE 0.9mph /  1.4km/h 3mph /  4.8km/h 89% 0in /  0.0mm 0 W/m2
02:14 53.4 °F /  11.9 °C 50.2 °F /  10.1 °C 30in /  1016.3hPa SE 2.9mph /  4.7km/h 4mph /  6.4km/h 89% 0in /  0.0mm 0 W/m2
02:19 53.2 °F /  11.8 °C 50 °F /  10 °C 30in /  1016.3hPa East 2mph /  3.2km/h 2mph /  3.2km/h 89% 0in /  0.0mm 0 W/m2
02:24 53.2 °F /  11.8 °C 50 °F /  10 °C 30in /  1016.3hPa SE 2mph /  3.2km/h 2mph /  3.2km/h 89% 0in /  0.0mm 0 W/m2
02:29 53.4 °F /  11.9 °C 50 °F /  10 °C 30in /  1015.9hPa NW 0.9mph /  1.4km/h 4mph /  6.4km/h 88% 0in /  0.0mm 0 W/m2
02:34 54.3 °F /  12.4 °C 49.6 °F /  9.8 °C 30in /  1015.9hPa Calm   4mph /  6.4km/h 84% 0in /  0.0mm 0 W/m2
02:39 55 °F /  12.8 °C 50 °F /  10 °C 30in /  1015.9hPa Calm   3mph /  4.8km/h 83% 0in /  0.0mm 0 W/m2
02:44 55.2 °F /  12.9 °C 49.8 °F /  9.9 °C 30in /  1015.9hPa NE 0.9mph /  1.4km/h 2mph /  3.2km/h 82% 0in /  0.0mm 0 W/m2
02:49 55.8 °F /  13.2 °C 49.6 °F /  9.8 °C 30in /  1015.9hPa ESE 0.9mph /  1.4km/h 2mph /  3.2km/h 80% 0in /  0.0mm 0 W/m2
02:54 55.9 °F /  13.3 °C 49.5 °F /  9.7 °C 30in /  1015.9hPa East 2mph /  3.2km/h 3mph /  4.8km/h 79% 0in /  0.0mm 0 W/m2
Juneau County Weather
Compliments of Weather Underground - 2 mb